Terminal Aerodrome Forecast
Issued by NWS

Current Version | Previous Version | Text Only | Print | Product List | Glossary On
Versions: 1 2 3 4 5 6 7 8 9 10 11 12 13
000
FTUS45 KGGW 252321
TAFOLF
TAF
KOLF 252321Z 2600/2624 27011KT P6SM FEW110
     FM260300 VRB04KT P6SM SKC
     FM261700 15008KT P6SM SKC
     FM262000 18008KT P6SM FEW140=

USA.gov is the U.S. government's official web portal to all federal, state and local government web resources and services.